Time;durP1;ratioP1;P1;durP2;ratioP2;P2;SDS_P1;SDS_P2;PMS_P1;PMS_P2;Temp;Humidity;BMP_temperature;BMP_pressure;BME280_temperature;BME280_humidity;BME280_pressure;Samples;Min_cycle;Max_cycle;Signal;HPM_P1;HPM_P2
2021/07/14 00:01:54;;;;;;;30.45;14.48;;;;;;;25.55;57.18;100734.34;4996802;28;20026;-61
2021/07/14 00:04:19;;;;;;;24.90;14.80;;;;;;;25.48;57.36;100737.19;4996944;28;20026;-61
2021/07/14 00:06:44;;;;;;;25.75;14.55;;;;;;;25.48;57.80;100745.44;4996509;28;20357;-61
2021/07/14 00:09:10;;;;;;;24.30;13.70;;;;;;;25.47;57.42;100735.50;4996448;28;20062;-61
2021/07/14 00:11:39;;;;;;;22.35;13.82;;;;;;;25.40;57.60;100732.00;4995323;28;20033;-61
2021/07/14 00:22:16;;;;;;;26.15;14.70;;;;;;;25.31;57.80;100738.84;4996546;28;20171;-61
2021/07/14 00:24:41;;;;;;;27.77;13.48;;;;;;;25.31;58.17;100744.31;4996414;28;20080;-61
2021/07/14 00:27:09;;;;;;;27.30;13.63;;;;;;;25.31;57.72;100738.84;4996166;28;20022;-60
2021/07/14 00:29:48;;;;;;;28.67;14.82;;;;;;;25.33;57.74;100747.66;4996094;28;20023;-60
2021/07/14 00:32:13;;;;;;;24.85;13.23;;;;;;;25.31;57.73;100744.31;4996372;28;20030;-61
2021/07/14 00:34:39;;;;;;;26.90;13.63;;;;;;;25.31;57.91;100744.31;4996138;28;20085;-60
2021/07/14 00:37:04;;;;;;;26.25;13.30;;;;;;;25.33;57.66;100736.69;4995930;28;20462;-60
2021/07/14 00:39:29;;;;;;;29.95;14.18;;;;;;;25.32;57.99;100741.34;4996213;28;20033;-60
2021/07/14 00:41:55;;;;;;;22.67;12.20;;;;;;;25.31;58.17;100741.56;4995975;28;20029;-60
2021/07/14 00:44:20;;;;;;;26.70;13.18;;;;;;;25.33;58.12;100744.91;4995536;28;20041;-61
2021/07/14 00:46:47;;;;;;;26.83;14.38;;;;;;;25.30;57.72;100748.97;4994510;28;20390;-61
2021/07/14 00:49:12;;;;;;;27.45;13.88;;;;;;;25.31;57.84;100750.66;4995434;28;20026;-61
2021/07/14 00:51:38;;;;;;;22.13;12.88;;;;;;;25.30;57.72;100748.13;4995744;28;20033;-61
2021/07/14 00:54:03;;;;;;;25.98;13.48;;;;;;;25.28;58.11;100733.81;4995593;28;20080;-61
2021/07/14 00:56:29;;;;;;;26.67;13.70;;;;;;;25.29;57.82;100736.31;4994154;28;20057;-61
2021/07/14 00:58:56;;;;;;;28.83;12.23;;;;;;;25.27;57.87;100738.44;4996294;28;20018;-60
2021/07/14 01:01:23;;;;;;;26.58;13.38;;;;;;;25.27;58.02;100743.09;4995190;28;20022;-60
2021/07/14 01:04:06;;;;;;;24.35;13.35;;;;;;;25.29;58.18;100746.47;4978225;28;20025;-60
2021/07/14 01:06:51;;;;;;;25.27;12.80;;;;;;;25.27;57.88;100746.66;4995643;28;20352;-61
2021/07/14 01:09:20;;;;;;;27.33;12.65;;;;;;;25.27;57.84;100743.09;4995686;28;20019;-61
2021/07/14 01:11:47;;;;;;;26.17;13.88;;;;;;;25.27;58.12;100748.56;4993883;28;20022;-60
2021/07/14 01:14:22;;;;;;;24.70;14.32;;;;;;;25.25;58.06;100745.22;4994484;28;20058;-60
2021/07/14 01:17:12;;;;;;;29.33;12.43;;;;;;;25.29;57.91;100740.97;4994965;28;20029;-60
2021/07/14 01:20:25;;;;;;;25.92;13.27;;;;;;;25.30;57.74;100743.47;5026856;28;20014;-60
2021/07/14 01:23:07;;;;;;;24.83;13.73;;;;;;;25.28;57.63;100731.91;4973967;28;20038;-62
2021/07/14 01:25:51;;;;;;;27.25;12.75;;;;;;;25.26;57.85;100730.47;5021794;28;20042;-63
2021/07/14 01:28:17;;;;;;;23.13;12.48;;;;;;;25.19;57.96;100729.66;4995039;28;20057;-61
2021/07/14 01:30:46;;;;;;;32.47;13.45;;;;;;;25.16;57.99;100727.38;4993811;28;20026;-61
2021/07/14 01:33:12;;;;;;;21.60;12.48;;;;;;;25.14;58.21;100726.78;4977510;28;20043;-62
2021/07/14 01:35:41;;;;;;;26.02;13.57;;;;;;;25.09;58.24;100723.88;4994027;28;20094;-61
2021/07/14 01:38:06;;;;;;;25.10;12.88;;;;;;;24.98;57.98;100710.94;5009992;28;20029;-62
2021/07/14 01:40:32;;;;;;;23.83;12.35;;;;;;;25.02;58.23;100729.41;4993623;28;20050;-61
2021/07/14 01:42:59;;;;;;;25.77;12.98;;;;;;;25.01;58.58;100710.47;4994586;28;20038;-61
2021/07/14 01:45:30;;;;;;;23.75;12.27;;;;;;;24.99;58.38;100707.94;4994703;28;20379;-61
2021/07/14 01:47:57;;;;;;;25.23;12.75;;;;;;;25.00;58.51;100715.13;4994459;28;20025;-60
2021/07/14 01:50:23;;;;;;;24.17;12.73;;;;;;;24.93;58.30;100702.53;4993479;28;20452;-60
2021/07/14 01:52:50;;;;;;;35.97;14.32;;;;;;;24.96;58.60;100708.38;4993739;28;20032;-60
2021/07/14 01:55:15;;;;;;;22.98;12.52;;;;;;;24.95;58.21;100717.69;4993660;28;20026;-60
2021/07/14 01:57:42;;;;;;;20.67;11.52;;;;;;;24.96;58.14;100713.88;4993060;28;20170;-60
2021/07/14 02:00:08;;;;;;;24.30;11.20;;;;;;;24.97;58.71;100715.56;4993594;28;20030;-60
2021/07/14 02:02:37;;;;;;;21.10;12.15;;;;;;;25.00;58.61;100714.28;4994478;28;20025;-60
2021/07/14 02:05:05;;;;;;;28.73;12.45;;;;;;;25.02;58.49;100709.38;4994300;28;20105;-61
2021/07/14 02:07:31;;;;;;;23.10;12.15;;;;;;;25.03;58.35;100708.34;4994163;28;20395;-61
2021/07/14 02:09:56;;;;;;;23.85;12.52;;;;;;;25.01;58.50;100711.31;4993266;28;20109;-60
2021/07/14 02:12:29;;;;;;;24.25;11.82;;;;;;;25.00;58.67;100708.78;4994470;28;20109;-60
2021/07/14 02:15:00;;;;;;;28.05;11.45;;;;;;;25.01;58.29;100705.84;4993545;28;20034;-60
2021/07/14 02:17:28;;;;;;;26.88;12.05;;;;;;;24.97;58.29;100701.00;4993462;28;20088;-60
2021/07/14 02:20:08;;;;;;;22.13;12.10;;;;;;;24.98;58.93;100705.44;4992911;28;20046;-61
2021/07/14 02:22:34;;;;;;;25.27;11.70;;;;;;;24.96;58.56;100708.38;4992938;28;20030;-60
2021/07/14 02:24:59;;;;;;;23.15;11.07;;;;;;;24.99;58.39;100712.56;4994688;28;20352;-60
2021/07/14 02:27:25;;;;;;;19.17;11.50;;;;;;;25.00;58.54;100708.78;4994338;28;20045;-60
2021/07/14 02:29:50;;;;;;;23.35;11.35;;;;;;;25.02;58.47;100707.50;4994278;28;20084;-60
2021/07/14 02:32:19;;;;;;;25.02;11.40;;;;;;;24.98;58.57;100713.66;4992733;28;20387;-60
2021/07/14 02:34:49;;;;;;;21.45;11.00;;;;;;;24.97;58.38;100725.69;4993990;28;20053;-60
2021/07/14 02:37:33;;;;;;;21.40;10.68;;;;;;;24.98;58.81;100717.25;4994448;28;20153;-60
2021/07/14 02:40:00;;;;;;;19.08;10.75;;;;;;;25.01;58.61;100718.69;4992751;28;20058;-60
2021/07/14 02:42:29;;;;;;;24.30;11.68;;;;;;;25.01;58.45;100721.44;4994442;28;20027;-61
2021/07/14 02:44:56;;;;;;;25.60;11.68;;;;;;;25.03;58.42;100713.81;4994185;28;20391;-61
2021/07/14 02:47:22;;;;;;;24.20;10.75;;;;;;;25.03;58.65;100708.34;4994835;28;20034;-60
2021/07/14 02:49:48;;;;;;;22.30;11.32;;;;;;;25.04;58.72;100701.81;4994008;28;20414;-60
2021/07/14 02:52:14;;;;;;;20.35;10.90;;;;;;;25.05;58.58;100703.47;4992920;28;20030;-60
2021/07/14 02:54:41;;;;;;;24.55;12.05;;;;;;;25.06;58.70;100713.38;4992588;28;20029;-60
2021/07/14 02:57:08;;;;;;;23.08;11.30;;;;;;;25.08;58.54;100701.09;4992580;28;20046;-60
2021/07/14 02:59:38;;;;;;;22.05;10.82;;;;;;;25.08;58.43;100695.63;4994125;28;20029;-61
2021/07/14 03:02:04;;;;;;;21.15;10.50;;;;;;;25.10;58.38;100692.69;4992592;28;20030;-60
2021/07/14 03:04:37;;;;;;;25.40;10.02;;;;;;;25.13;58.52;100697.69;4992859;28;20026;-60
2021/07/14 03:07:07;;;;;;;22.58;11.05;;;;;;;25.14;58.14;100699.38;4994508;28;20036;-60
2021/07/14 03:09:37;;;;;;;18.55;9.95;;;;;;;25.11;58.33;100699.81;4993564;28;20030;-60
2021/07/14 03:12:08;;;;;;;20.08;10.10;;;;;;;25.13;58.12;100703.16;4993936;28;20033;-60
2021/07/14 03:14:37;;;;;;;22.60;10.73;;;;;;;25.11;58.36;100699.81;4996126;28;20029;-60
2021/07/14 03:17:03;;;;;;;23.08;10.65;;;;;;;25.08;58.46;100690.16;4996621;28;20030;-60
2021/07/14 03:19:30;;;;;;;25.35;11.98;;;;;;;25.09;58.24;100696.47;4980189;28;20018;-60
2021/07/14 03:21:56;;;;;;;20.67;12.02;;;;;;;25.10;57.96;100693.47;4996767;28;20023;-60
2021/07/14 03:24:22;;;;;;;23.83;12.50;;;;;;;25.08;58.03;100683.81;4995967;28;20028;-60
2021/07/14 03:26:47;;;;;;;21.75;11.63;;;;;;;25.09;57.99;100693.72;4996976;28;20030;-60
2021/07/14 03:29:14;;;;;;;24.75;12.27;;;;;;;25.09;58.47;100696.47;4995775;28;20491;-60
2021/07/14 03:31:39;;;;;;;28.75;12.23;;;;;;;25.11;58.39;100689.69;4996106;28;20046;-60
2021/07/14 03:34:05;;;;;;;21.40;12.57;;;;;;;25.12;58.16;100691.38;4996018;28;20073;-60
2021/07/14 03:36:31;;;;;;;27.88;12.40;;;;;;;25.12;58.30;100683.16;4996843;28;20041;-60
2021/07/14 03:38:56;;;;;;;25.73;12.10;;;;;;;25.13;58.38;100686.72;4997335;28;20049;-60
2021/07/14 03:41:22;;;;;;;26.88;12.93;;;;;;;25.15;57.96;100679.13;4995832;28;20120;-61
2021/07/14 03:43:49;;;;;;;19.67;11.85;;;;;;;25.15;57.83;100685.44;4996361;28;20033;-60
2021/07/14 03:46:15;;;;;;;24.73;13.35;;;;;;;25.17;57.57;100687.94;4997057;28;20027;-60
2021/07/14 03:48:41;;;;;;;23.88;12.15;;;;;;;25.13;58.11;100678.47;4995659;28;20391;-61
2021/07/14 03:51:07;;;;;;;22.80;11.48;;;;;;;25.14;58.06;100678.28;4996572;28;20101;-60
2021/07/14 03:53:32;;;;;;;22.60;12.10;;;;;;;25.20;57.63;100692.97;4996538;28;20108;-60
2021/07/14 03:55:58;;;;;;;22.73;11.45;;;;;;;25.24;57.86;100688.69;4995313;28;20049;-60
2021/07/14 03:58:24;;;;;;;22.80;11.88;;;;;;;25.27;57.34;100690.97;4996392;28;20069;-60
2021/07/14 04:00:50;;;;;;;20.50;11.75;;;;;;;25.29;57.74;100686.94;4996676;28;20128;-60
2021/07/14 04:03:21;;;;;;;28.75;12.20;;;;;;;25.32;57.70;100691.97;4996364;28;20053;-60
2021/07/14 04:05:49;;;;;;;26.92;12.18;;;;;;;25.34;57.25;100683.53;4996566;28;20026;-60
2021/07/14 04:08:18;;;;;;;19.60;11.07;;;;;;;25.34;57.46;100691.75;4995515;28;20061;-61
2021/07/14 04:10:45;;;;;;;21.95;11.80;;;;;;;25.34;57.45;100689.00;4995046;28;20026;-60
2021/07/14 04:13:10;;;;;;;23.67;11.38;;;;;;;25.35;57.57;100696.16;4995338;28;20033;-61
2021/07/14 04:15:36;;;;;;;22.10;11.15;;;;;;;25.36;57.77;100686.88;4996124;28;20030;-60
2021/07/14 04:18:02;;;;;;;35.75;13.10;;;;;;;25.30;57.51;100676.81;4996329;28;20037;-60
2021/07/14 04:20:27;;;;;;;25.55;12.50;;;;;;;25.38;57.48;100691.06;4996326;28;20045;-60
2021/07/14 04:22:53;;;;;;;25.13;11.20;;;;;;;25.33;57.29;100679.94;4996401;28;20076;-60
2021/07/14 04:25:18;;;;;;;21.67;11.40;;;;;;;25.34;57.46;100689.84;4995068;28;20034;-60
2021/07/14 04:27:44;;;;;;;25.00;11.30;;;;;;;25.29;57.42;100686.13;4996144;28;20032;-61
2021/07/14 04:30:10;;;;;;;22.48;11.35;;;;;;;25.29;57.76;100694.34;4995927;28;20037;-60
2021/07/14 04:32:35;;;;;;;23.73;11.73;;;;;;;25.25;57.56;100696.72;4996295;28;20077;-60
2021/07/14 04:35:00;;;;;;;26.52;11.48;;;;;;;25.21;57.95;100694.66;4995750;28;20030;-60
2021/07/14 04:37:26;;;;;;;18.77;11.25;;;;;;;25.15;57.57;100690.94;4995937;28;20105;-60
2021/07/14 04:39:51;;;;;;;18.95;10.93;;;;;;;25.16;57.58;100691.75;4995856;28;20049;-60
2021/07/14 04:42:16;;;;;;;19.83;10.90;;;;;;;25.11;57.57;100694.31;4996692;28;20022;-60
2021/07/14 04:44:50;;;;;;;21.33;9.98;;;;;;;25.09;57.88;100700.06;4995511;28;20038;-61
2021/07/14 04:47:16;;;;;;;15.18;9.70;;;;;;;25.04;57.94;100699.06;4995502;28;20030;-61
2021/07/14 04:49:41;;;;;;;18.65;10.40;;;;;;;25.00;57.96;100698.66;4996282;28;20026;-60
2021/07/14 04:52:08;;;;;;;16.38;8.90;;;;;;;25.04;57.93;100699.06;4995826;28;20022;-60
2021/07/14 04:54:34;;;;;;;15.07;9.07;;;;;;;25.04;58.17;100699.06;4995569;28;20100;-61
2021/07/14 04:56:59;;;;;;;15.63;9.82;;;;;;;25.01;57.52;100692.13;4995628;28;20491;-60
2021/07/14 04:59:25;;;;;;;15.88;8.52;;;;;;;25.05;57.83;100706.19;4995305;28;20014;-60
2021/07/14 05:01:50;;;;;;;14.57;8.73;;;;;;;25.04;57.77;100699.06;4995552;28;20042;-60
2021/07/14 05:04:16;;;;;;;13.70;8.20;;;;;;;25.03;57.99;100700.13;4995216;28;20034;-60
2021/07/14 05:06:41;;;;;;;15.48;8.80;;;;;;;25.03;57.75;100708.34;4995382;28;20037;-61
2021/07/14 05:09:07;;;;;;;11.25;7.63;;;;;;;24.99;58.03;100701.63;4995125;28;20478;-60
2021/07/14 05:11:32;;;;;;;16.35;8.75;;;;;;;24.97;57.88;100701.84;4994891;28;20028;-60
2021/07/14 05:13:58;;;;;;;14.35;7.40;;;;;;;24.96;58.85;100700.16;4977543;28;20049;-61
2021/07/14 05:16:23;;;;;;;11.65;7.32;;;;;;;24.92;57.73;100693.47;4995330;28;20109;-60
2021/07/14 05:18:48;;;;;;;16.38;7.32;;;;;;;24.94;57.60;100695.97;4995212;28;20072;-60
2021/07/14 05:21:14;;;;;;;14.02;7.55;;;;;;;24.92;57.85;100712.66;4994927;28;20559;-60
2021/07/14 05:23:39;;;;;;;13.27;7.22;;;;;;;24.88;58.11;100700.47;4993941;28;20033;-60
2021/07/14 05:26:05;;;;;;;15.02;8.70;;;;;;;24.88;57.93;100705.94;4995147;28;20030;-60
2021/07/14 05:28:30;;;;;;;12.73;7.75;;;;;;;24.83;58.13;100701.16;4992767;28;20046;-61
2021/07/14 05:30:55;;;;;;;12.68;7.35;;;;;;;24.83;58.11;100703.03;4995240;28;20455;-60
2021/07/14 05:33:21;;;;;;;15.80;7.53;;;;;;;24.85;58.20;100709.97;4994908;28;20025;-60
2021/07/14 05:35:47;;;;;;;12.73;6.95;;;;;;;24.82;57.89;100702.19;4994370;28;20424;-61
2021/07/14 05:38:19;;;;;;;11.38;7.00;;;;;;;24.82;57.98;100707.69;4994108;28;20030;-61
2021/07/14 05:40:46;;;;;;;12.27;7.07;;;;;;;24.80;58.56;100714.47;4994748;28;20073;-61
2021/07/14 05:43:11;;;;;;;13.93;7.65;;;;;;;24.82;58.66;100723.28;4977284;28;20034;-61
2021/07/14 05:45:37;;;;;;;11.88;7.68;;;;;;;24.82;58.30;100707.69;4994789;28;20365;-61
2021/07/14 05:48:03;;;;;;;14.45;8.55;;;;;;;24.84;58.19;100718.44;4995041;28;20057;-61
2021/07/14 05:50:29;;;;;;;16.77;9.50;;;;;;;24.84;57.86;100711.06;4994906;28;20105;-61
2021/07/14 05:52:54;;;;;;;17.80;9.00;;;;;;;24.85;57.86;100717.34;4995159;28;20113;-60
2021/07/14 05:55:20;;;;;;;16.73;10.35;;;;;;;24.86;58.02;100719.88;4994369;28;20057;-61
2021/07/14 05:57:45;;;;;;;16.33;8.95;;;;;;;24.88;58.24;100717.75;4994366;28;20058;-61
2021/07/14 06:00:11;;;;;;;16.35;9.02;;;;;;;24.88;57.90;100723.22;4994879;28;20084;-60
2021/07/14 06:02:37;;;;;;;12.82;8.40;;;;;;;24.80;58.09;100709.81;4994249;28;20089;-61
2021/07/14 06:05:04;;;;;;;12.43;8.55;;;;;;;24.87;57.96;100729.75;4994538;28;20030;-60
2021/07/14 06:07:30;;;;;;;19.13;9.55;;;;;;;24.84;57.92;100716.53;4993587;28;20462;-61
2021/07/14 06:09:56;;;;;;;13.63;8.18;;;;;;;24.84;58.42;100716.53;4994794;28;20109;-61
2021/07/14 06:12:21;;;;;;;13.82;8.73;;;;;;;24.82;58.38;100713.16;4994148;28;20157;-61
2021/07/14 06:14:49;;;;;;;16.85;8.63;;;;;;;24.86;58.46;100725.38;4994822;28;20069;-61
2021/07/14 06:17:15;;;;;;;11.43;7.75;;;;;;;24.84;58.35;100730.25;4994121;28;20037;-61
2021/07/14 06:19:40;;;;;;;14.77;8.07;;;;;;;24.86;58.00;100730.84;4992880;28;20383;-62
2021/07/14 06:22:06;;;;;;;12.73;7.38;;;;;;;24.83;58.16;100722.22;4994585;28;20041;-61
2021/07/14 06:24:31;;;;;;;13.38;7.68;;;;;;;24.83;58.47;100730.44;4994335;28;20022;-61
2021/07/14 06:26:56;;;;;;;13.95;7.32;;;;;;;24.84;58.43;100726.66;4994085;28;20026;-60
2021/07/14 06:29:22;;;;;;;11.85;7.15;;;;;;;24.81;58.51;100733.44;4994230;28;20070;-60
2021/07/14 06:31:49;;;;;;;15.02;8.05;;;;;;;24.82;58.53;100734.25;4994545;28;20025;-60
2021/07/14 06:34:14;;;;;;;14.27;7.65;;;;;;;24.81;58.46;100727.94;4994344;28;20104;-61
2021/07/14 06:36:40;;;;;;;10.85;7.07;;;;;;;24.84;58.28;100730.25;4994303;28;20455;-61
2021/07/14 06:39:05;;;;;;;14.88;7.55;;;;;;;24.82;58.25;100726.03;4994020;28;20022;-60
2021/07/14 06:41:31;;;;;;;12.93;6.88;;;;;;;24.81;58.54;100730.69;4993950;28;20038;-60
2021/07/14 06:43:59;;;;;;;12.05;6.72;;;;;;;24.86;58.63;100730.84;4994212;28;20093;-60
2021/07/14 06:46:25;;;;;;;14.13;7.68;;;;;;;24.84;58.40;100716.53;4994154;28;20034;-60
2021/07/14 06:48:50;;;;;;;11.23;6.75;;;;;;;24.87;58.71;100738.00;4996974;28;20419;-61
2021/07/14 06:51:16;;;;;;;13.52;6.63;;;;;;;24.88;58.40;100736.94;4998062;28;20057;-60
2021/07/14 06:53:41;;;;;;;12.85;6.03;;;;;;;24.89;58.81;100741.38;4997944;28;20471;-60
2021/07/14 06:56:07;;;;;;;13.07;6.20;;;;;;;24.87;58.55;100740.72;4996237;28;20034;-60
2021/07/14 06:58:36;;;;;;;16.20;7.15;;;;;;;24.85;58.76;100740.13;4997502;28;20074;-60
2021/07/14 07:01:01;;;;;;;11.00;6.03;;;;;;;24.83;58.94;100747.75;4997503;28;20026;-60
2021/07/14 07:03:27;;;;;;;9.43;6.10;;;;;;;24.85;58.82;100745.59;4996935;28;20029;-60
2021/07/14 07:05:52;;;;;;;10.65;6.10;;;;;;;24.83;58.68;100750.47;4997437;28;20058;-60
2021/07/14 07:08:18;;;;;;;12.60;6.85;;;;;;;24.84;58.38;100746.69;4997641;28;20498;-61
2021/07/14 07:10:44;;;;;;;13.27;6.53;;;;;;;24.85;58.10;100751.09;4997584;28;20030;-60
2021/07/14 07:13:11;;;;;;;12.65;6.15;;;;;;;24.85;58.94;100756.56;4997580;28;20048;-61
2021/07/14 07:15:37;;;;;;;10.52;6.40;;;;;;;24.78;58.77;100744.81;4997531;28;20097;-60
2021/07/14 07:18:02;;;;;;;13.20;6.38;;;;;;;24.76;59.10;100746.91;4997277;28;20499;-61
2021/07/14 07:20:29;;;;;;;11.90;6.07;;;;;;;24.83;58.56;100755.13;4997529;28;20030;-61
2021/07/14 07:22:55;;;;;;;13.00;6.57;;;;;;;24.84;58.35;100752.16;4997083;28;20034;-61
2021/07/14 07:25:20;;;;;;;10.25;6.78;;;;;;;24.86;58.40;100758.25;4997238;28;20030;-61
2021/07/14 07:27:46;;;;;;;11.43;6.15;;;;;;;24.84;58.56;100751.31;4997277;28;20026;-61
2021/07/14 07:30:12;;;;;;;11.38;6.07;;;;;;;24.80;58.72;100748.19;4997506;28;20057;-61
2021/07/14 07:32:38;;;;;;;8.25;5.30;;;;;;;24.82;58.77;100757.00;4997233;28;20030;-61
2021/07/14 07:35:05;;;;;;;9.85;5.63;;;;;;;24.83;58.65;100763.34;4996814;28;20582;-60
2021/07/14 07:37:30;;;;;;;9.48;5.65;;;;;;;24.82;58.16;100751.53;4997563;28;20025;-61
2021/07/14 07:39:56;;;;;;;9.95;5.70;;;;;;;24.85;58.30;100762.06;4996841;28;20399;-61
2021/07/14 07:42:22;;;;;;;8.35;4.95;;;;;;;24.87;58.86;100759.91;4997200;28;20080;-61
2021/07/14 07:44:48;;;;;;;9.55;5.70;;;;;;;24.92;58.97;100755.69;4997054;28;20391;-61
2021/07/14 07:47:14;;;;;;;7.78;5.07;;;;;;;24.89;58.17;100757.81;4996940;28;20398;-61
2021/07/14 07:49:43;;;;;;;8.57;5.75;;;;;;;24.88;58.77;100764.34;4996814;28;20038;-62
2021/07/14 07:52:08;;;;;;;8.15;5.78;;;;;;;24.88;58.97;100760.75;4996822;28;20022;-62
2021/07/14 07:54:33;;;;;;;10.18;5.95;;;;;;;24.92;58.39;100758.41;4996734;28;20022;-60
2021/07/14 07:56:59;;;;;;;11.50;6.25;;;;;;;24.94;58.41;100770.00;4996381;28;20077;-62
2021/07/14 07:59:24;;;;;;;9.27;5.80;;;;;;;24.93;58.31;100760.09;4995293;28;20367;-61
2021/07/14 08:01:50;;;;;;;9.55;5.53;;;;;;;24.93;58.75;100757.38;4997064;28;20113;-61
2021/07/14 08:04:17;;;;;;;9.65;5.60;;;;;;;24.97;58.34;100762.16;4997096;28;20057;-61
2021/07/14 08:06:42;;;;;;;10.38;6.35;;;;;;;25.00;58.58;100764.47;4996622;28;20045;-61
2021/07/14 08:09:07;;;;;;;9.68;5.80;;;;;;;25.04;58.33;100764.84;4996257;28;20114;-61
2021/07/14 08:11:33;;;;;;;11.57;6.65;;;;;;;25.04;58.58;100762.97;4994968;28;20394;-61
2021/07/14 08:13:59;;;;;;;10.48;6.57;;;;;;;25.01;58.57;100759.81;4995189;28;20022;-60
2021/07/14 08:16:26;;;;;;;10.20;6.45;;;;;;;25.05;57.99;100761.88;4996356;28;20467;-60
2021/07/14 08:18:51;;;;;;;12.63;6.70;;;;;;;25.03;58.83;100758.53;4995041;28;20367;-61
2021/07/14 08:21:17;;;;;;;10.48;5.80;;;;;;;25.05;58.33;100761.88;4995015;28;20033;-60
2021/07/14 08:23:42;;;;;;;9.15;5.63;;;;;;;25.06;58.53;100768.19;4996415;28;20032;-60
2021/07/14 08:26:08;;;;;;;10.68;6.13;;;;;;;25.09;58.82;100771.34;4994967;28;20034;-60
2021/07/14 08:28:33;;;;;;;11.77;6.47;;;;;;;25.12;58.67;100761.81;4994647;28;20379;-60
2021/07/14 08:30:58;;;;;;;10.45;5.90;;;;;;;25.05;58.24;100752.81;4995862;28;20057;-60
2021/07/14 08:33:24;;;;;;;11.70;6.65;;;;;;;25.15;58.45;100761.38;4996333;28;20084;-60
2021/07/14 08:35:49;;;;;;;9.93;5.97;;;;;;;25.17;58.68;100781.16;4996079;28;20113;-60
2021/07/14 08:38:14;;;;;;;10.45;6.53;;;;;;;25.20;58.50;100767.00;4995988;28;20026;-60
2021/07/14 08:40:40;;;;;;;9.30;5.38;;;;;;;25.19;58.22;100763.44;4994358;28;20027;-60
2021/07/14 08:43:11;;;;;;;8.40;5.57;;;;;;;25.21;58.38;100763.22;4996043;28;20030;-60
2021/07/14 08:45:40;;;;;;;11.80;6.10;;;;;;;25.16;58.50;100769.34;4995858;28;20152;-59
2021/07/14 08:48:06;;;;;;;7.20;4.80;;;;;;;25.11;58.32;100771.09;4994313;28;20361;-59
2021/07/14 08:50:32;;;;;;;8.90;4.82;;;;;;;25.13;58.90;100777.19;4995723;28;20030;-60
2021/07/14 08:52:58;;;;;;;11.10;5.72;;;;;;;25.13;58.86;100777.19;4996003;28;20022;-60
2021/07/14 08:55:24;;;;;;;9.23;5.25;;;;;;;25.11;58.48;100771.09;4995625;28;20356;-60
2021/07/14 08:57:51;;;;;;;9.85;5.50;;;;;;;25.10;58.46;100780.41;4995008;28;20061;-60
2021/07/14 09:00:22;;;;;;;10.75;4.93;;;;;;;25.07;58.86;100780.84;4994389;28;20105;-60
2021/07/14 09:02:47;;;;;;;7.65;5.18;;;;;;;25.03;58.89;100774.13;4995372;28;20084;-60
2021/07/14 09:05:13;;;;;;;8.13;5.60;;;;;;;25.05;58.67;100774.72;4995472;28;20026;-60
2021/07/14 09:07:39;;;;;;;7.75;4.50;;;;;;;25.09;57.93;100774.06;4995654;28;20426;-60
2021/07/14 09:10:10;;;;;;;9.80;5.68;;;;;;;25.11;58.66;100777.44;4993559;28;20026;-60
2021/07/14 09:12:38;;;;;;;9.68;5.60;;;;;;;25.07;58.35;100770.69;4995050;28;20028;-60
2021/07/14 09:15:11;;;;;;;10.32;5.68;;;;;;;25.15;57.90;100783.31;4995227;28;20026;-60
2021/07/14 09:17:45;;;;;;;14.27;6.00;;;;;;;25.15;57.90;100783.31;4995598;28;20030;-60
2021/07/14 09:20:19;;;;;;;8.63;5.28;;;;;;;25.10;58.14;100791.38;4992868;28;20034;-60
2021/07/14 09:22:46;;;;;;;11.05;5.85;;;;;;;25.06;57.90;100787.38;4995185;28;20435;-60
2021/07/14 09:25:12;;;;;;;9.43;5.93;;;;;;;25.09;58.33;100789.69;4995075;28;20026;-61
2021/07/14 09:27:37;;;;;;;9.35;5.72;;;;;;;25.05;58.50;100782.97;4994816;28;20029;-61
2021/07/14 09:30:10;;;;;;;9.85;5.35;;;;;;;25.02;57.91;100786.16;4995021;28;20026;-61
2021/07/14 09:33:06;;;;;;;11.48;5.70;;;;;;;25.03;58.65;100785.09;4994742;28;20080;-61
2021/07/14 09:35:35;;;;;;;12.27;5.93;;;;;;;25.01;57.98;100782.59;4994936;28;20034;-61
2021/07/14 09:38:07;;;;;;;9.98;5.65;;;;;;;25.01;58.36;100782.59;4993468;28;20030;-61
2021/07/14 09:40:33;;;;;;;9.35;5.75;;;;;;;25.03;58.06;100779.59;4994492;28;20058;-60
2021/07/14 09:43:02;;;;;;;11.52;5.97;;;;;;;25.04;57.93;100781.31;4994557;28;20431;-61
2021/07/14 09:45:51;;;;;;;8.88;5.75;;;;;;;25.05;58.13;100791.19;4994557;28;20030;-60
2021/07/14 09:48:41;;;;;;;7.63;5.00;;;;;;;25.05;57.97;100785.69;4994695;28;20487;-60
2021/07/14 09:51:14;;;;;;;8.02;4.90;;;;;;;25.04;58.29;100784.88;4994655;28;20098;-60
2021/07/14 09:53:42;;;;;;;8.88;5.07;;;;;;;25.05;58.26;100788.44;4995019;28;20324;-60
2021/07/14 09:56:21;;;;;;;8.70;6.07;;;;;;;25.06;58.35;100796.47;4993087;28;20026;-62
2021/07/14 09:58:47;;;;;;;11.70;6.05;;;;;;;25.00;57.86;100794.59;4992815;28;20089;-60
2021/07/14 10:01:15;;;;;;;13.07;6.82;;;;;;;24.98;58.38;100798.63;4994294;28;20026;-61
2021/07/14 10:03:51;;;;;;;11.50;6.75;;;;;;;24.90;58.03;100789.63;4993444;28;20109;-61
2021/07/14 10:06:19;;;;;;;15.85;8.07;;;;;;;24.91;58.24;100787.72;4994289;28;20105;-61
2021/07/14 10:08:48;;;;;;;11.80;7.20;;;;;;;24.86;57.81;100791.16;4992982;28;20026;-61
2021/07/14 10:11:22;;;;;;;13.15;7.10;;;;;;;24.87;58.12;100792.00;4994104;28;20109;-62
2021/07/14 10:14:03;;;;;;;12.30;7.32;;;;;;;24.84;57.80;100782.31;4994451;28;20034;-61
2021/07/14 10:16:30;;;;;;;12.80;7.03;;;;;;;24.86;58.25;100779.34;4994426;28;20073;-61
2021/07/14 10:18:58;;;;;;;12.40;8.00;;;;;;;24.89;57.97;100787.97;4994371;28;20065;-60
2021/07/14 10:21:24;;;;;;;15.32;8.10;;;;;;;24.87;58.29;100779.09;4995353;28;20093;-61
2021/07/14 10:23:50;;;;;;;16.58;8.73;;;;;;;24.93;58.15;100784.78;4998555;28;20022;-61
2021/07/14 10:26:16;;;;;;;19.33;9.32;;;;;;;24.97;57.79;100783.25;4998742;28;20538;-60
2021/07/14 10:28:44;;;;;;;19.33;9.55;;;;;;;24.99;57.93;100784.69;4998397;28;20034;-60
2021/07/14 10:31:10;;;;;;;18.55;10.48;;;;;;;25.00;57.81;100788.28;4999043;28;20068;-61
2021/07/14 10:33:35;;;;;;;18.38;10.13;;;;;;;25.08;57.91;100790.75;4998052;28;20030;-61
2021/07/14 10:36:02;;;;;;;18.08;9.75;;;;;;;25.08;57.77;100788.84;4998311;28;20034;-61
2021/07/14 10:38:28;;;;;;;14.27;8.90;;;;;;;25.10;58.10;100791.38;4997071;28;20073;-60
2021/07/14 10:40:55;;;;;;;15.40;9.15;;;;;;;25.09;57.72;100795.16;4998350;28;20062;-61
2021/07/14 10:43:23;;;;;;;24.27;10.70;;;;;;;25.11;57.59;100793.03;4997863;28;20390;-60
2021/07/14 10:45:50;;;;;;;17.83;10.02;;;;;;;25.10;57.65;100786.69;4998166;28;20371;-60
2021/07/14 10:48:21;;;;;;;18.85;10.85;;;;;;;25.12;57.75;100795.56;4997168;28;20077;-61
2021/07/14 10:50:47;;;;;;;16.13;10.10;;;;;;;25.13;57.86;100799.13;4997722;28;20033;-61
2021/07/14 10:53:14;;;;;;;22.90;11.48;;;;;;;25.05;57.80;100777.47;4997948;28;20068;-60
2021/07/14 10:55:40;;;;;;;17.15;10.77;;;;;;;25.01;57.70;100782.59;4998123;28;20113;-60
2021/07/14 10:58:06;;;;;;;20.73;11.02;;;;;;;24.96;58.13;100784.31;5029074;28;20117;-61
2021/07/14 11:00:41;;;;;;;18.67;10.32;;;;;;;24.94;57.91;100786.44;5029451;28;20434;-60
2021/07/14 11:03:33;;;;;;;19.35;10.07;;;;;;;24.86;58.09;100785.66;4998066;28;20088;-60
2021/07/14 11:05:59;;;;;;;18.42;9.88;;;;;;;24.84;57.70;100782.31;4997382;28;20034;-60
2021/07/14 11:08:42;;;;;;;22.40;9.85;;;;;;;24.82;57.49;100784.41;4996272;28;20448;-60
2021/07/14 11:11:08;;;;;;;20.88;10.77;;;;;;;24.78;57.65;100785.91;4997288;28;20030;-61
2021/07/14 11:13:35;;;;;;;21.63;11.13;;;;;;;24.68;58.00;100785.56;4997284;28;20041;-60
2021/07/14 11:16:36;;;;;;;16.63;10.15;;;;;;;24.66;58.19;100784.94;4997555;28;20379;-61
2021/07/14 11:19:13;;;;;;;23.67;10.90;;;;;;;24.59;58.16;100777.84;4997465;28;20033;-60
2021/07/14 11:21:51;;;;;;;20.73;11.00;;;;;;;24.58;57.83;100782.47;4997990;28;20467;-60
2021/07/14 11:24:49;;;;;;;18.33;10.02;;;;;;;24.53;57.91;100790.53;4997479;28;20080;-61
2021/07/14 11:27:27;;;;;;;19.60;10.77;;;;;;;24.46;58.50;100784.22;4997355;28;20019;-61